Terminal Aerodrome Forecast
Issued by NWS

Home | Current Version | Previous Version | Text Only | Print | Product List | Glossary On
Versions: 1 2 3 4 5 6 7 8 9 10 11 12 13 14 15 16 17 18 19 20 21 22 23 24 25 26 27 28 29 30 31 32 33 34 35 36 37 38 39 40 41
043
FTUS46 KPQR 121142
TAFONP
TAF
KONP 121142Z 1212/1312 18015KT P6SM -SHRA BKN009 BKN015 OVC025
     FM121400 21011KT 4SM -RA BR OVC019
     FM121600 21010KT 4SM -RA BR OVC009
     FM121900 22009G15KT 4SM BR BKN019
     FM122200 20007KT P6SM SCT250
     FM130300 23008KT P6SM SHRA SCT025 BKN040=

USA.gov is the U.S. government's official web portal to all federal, state and local government web resources and services.